Time;durP1;ratioP1;P1;durP2;ratioP2;P2;SDS_P1;SDS_P2;PMS_P1;PMS_P2;Temp;Humidity;BMP_temperature;BMP_pressure;BME280_temperature;BME280_humidity;BME280_pressure;Samples;Min_cycle;Max_cycle;Signal;HPM_P1;HPM_P2
2021/04/19 00:00:55;;;;;;;2.25;0.90;;;9.30;64.80;;;;;;4888627;29;20052;-73
2021/04/19 00:03:21;;;;;;;1.80;0.88;;;9.30;64.80;;;;;;4891735;29;20122;-73
2021/04/19 00:05:49;;;;;;;2.33;1.02;;;9.20;64.80;;;;;;4887083;29;20705;-73
2021/04/19 00:08:16;;;;;;;2.83;1.00;;;9.20;65.00;;;;;;4868407;29;20462;-73
2021/04/19 00:10:42;;;;;;;2.45;1.13;;;9.20;65.10;;;;;;4885534;29;20057;-73
2021/04/19 00:13:09;;;;;;;3.03;1.08;;;9.10;65.20;;;;;;4893476;29;20136;-73
2021/04/19 00:15:35;;;;;;;2.85;1.05;;;9.10;65.40;;;;;;4896425;29;20040;-73
2021/04/19 00:18:02;;;;;;;3.67;1.50;;;9.10;65.60;;;;;;4872031;29;20055;-73
2021/04/19 00:20:29;;;;;;;2.10;0.90;;;9.10;65.70;;;;;;4880829;29;20056;-73
2021/04/19 00:22:56;;;;;;;5.00;1.77;;;9.10;65.70;;;;;;4897217;29;20060;-73
2021/04/19 00:25:23;;;;;;;2.93;1.23;;;9.10;66.10;;;;;;4873172;29;20045;-73
2021/04/19 00:27:50;;;;;;;2.60;1.17;;;9.00;66.00;;;;;;4871818;29;20053;-73
2021/04/19 00:30:18;;;;;;;3.45;1.20;;;9.00;66.10;;;;;;4884854;29;20405;-71
2021/04/19 00:32:45;;;;;;;2.55;1.15;;;8.90;66.10;;;;;;4872961;29;20045;-71
2021/04/19 00:35:12;;;;;;;3.15;1.20;;;8.90;66.20;;;;;;4884399;29;20418;-71
2021/04/19 00:37:39;;;;;;;2.00;0.80;;;8.90;66.30;;;;;;4871620;29;20246;-71
2021/04/19 00:40:11;;;;;;;3.03;1.35;;;8.80;66.40;;;;;;4880344;29;20052;-71
2021/04/19 00:42:39;;;;;;;3.28;1.17;;;8.80;66.50;;;;;;4876128;29;20390;-71
2021/04/19 00:45:08;;;;;;;2.50;0.90;;;8.80;66.60;;;;;;4890610;29;20044;-71
2021/04/19 00:47:35;;;;;;;2.83;1.00;;;8.70;66.60;;;;;;4900898;29;20047;-71
2021/04/19 00:50:12;;;;;;;2.15;0.88;;;8.70;66.70;;;;;;4874740;29;20498;-71
2021/04/19 00:52:38;;;;;;;2.40;0.90;;;8.70;66.90;;;;;;4871041;29;20048;-71
2021/04/19 00:55:11;;;;;;;3.17;0.97;;;8.70;67.00;;;;;;4879855;29;20048;-71
2021/04/19 00:57:38;;;;;;;2.17;1.02;;;8.70;67.10;;;;;;4893272;29;20528;-71
2021/04/19 01:00:10;;;;;;;2.97;1.30;;;8.60;67.20;;;;;;4896056;29;20044;-71
2021/04/19 01:02:39;;;;;;;3.67;1.45;;;8.60;67.30;;;;;;4874315;29;20060;-71
2021/04/19 01:05:23;;;;;;;3.63;1.25;;;8.60;67.40;;;;;;4875629;29;20497;-71
2021/04/19 01:07:51;;;;;;;4.05;1.70;;;8.60;67.60;;;;;;4879488;29;20135;-71
2021/04/19 01:10:19;;;;;;;3.13;1.30;;;8.60;67.60;;;;;;4878984;29;20052;-71
2021/04/19 01:12:46;;;;;;;2.85;1.20;;;8.60;67.60;;;;;;4863631;29;20052;-71
2021/04/19 01:15:14;;;;;;;7.75;2.10;;;8.50;67.80;;;;;;4894985;29;20037;-71
2021/04/19 01:17:43;;;;;;;2.67;1.30;;;8.50;67.90;;;;;;4897353;29;20045;-70
2021/04/19 01:20:16;;;;;;;3.92;1.60;;;8.50;68.00;;;;;;4895708;29;20493;-71
2021/04/19 01:22:45;;;;;;;3.17;1.33;;;8.50;68.10;;;;;;4880577;29;20076;-71
2021/04/19 01:25:23;;;;;;;2.80;1.00;;;8.50;68.10;;;;;;4868066;29;20065;-71
2021/04/19 01:27:51;;;;;;;2.70;1.33;;;8.50;68.20;;;;;;4881477;29;20045;-71
2021/04/19 01:30:21;;;;;;;2.93;1.00;;;8.40;68.20;;;;;;4867155;29;20048;-71
2021/04/19 01:32:47;;;;;;;3.70;1.37;;;8.40;68.30;;;;;;4870721;29;20049;-71
2021/04/19 01:35:15;;;;;;;3.60;1.60;;;8.40;68.50;;;;;;4871028;29;20055;-71
2021/04/19 01:37:43;;;;;;;3.37;1.30;;;8.40;68.60;;;;;;4860312;29;20450;-71
2021/04/19 01:40:15;;;;;;;3.37;1.27;;;8.30;68.60;;;;;;4878263;29;20131;-71
2021/04/19 01:42:43;;;;;;;3.65;1.55;;;8.30;68.70;;;;;;4869422;29;20049;-71
2021/04/19 01:45:13;;;;;;;2.90;1.45;;;8.30;68.70;;;;;;4873858;29;20040;-71
2021/04/19 01:47:41;;;;;;;2.33;0.98;;;8.30;68.90;;;;;;4896678;29;20044;-71
2021/04/19 01:50:22;;;;;;;2.53;0.93;;;8.30;69.00;;;;;;4889455;29;20104;-70
2021/04/19 01:52:52;;;;;;;3.23;1.30;;;8.20;69.00;;;;;;4878520;29;20045;-70
2021/04/19 01:55:26;;;;;;;3.35;1.00;;;8.10;69.10;;;;;;4880179;29;20136;-70
2021/04/19 01:57:57;;;;;;;3.10;1.00;;;8.20;69.30;;;;;;4892380;29;20498;-71
2021/04/19 02:00:27;;;;;;;2.83;1.27;;;8.10;69.30;;;;;;4873509;29;20469;-70
2021/04/19 02:03:05;;;;;;;2.95;0.95;;;8.00;69.40;;;;;;4890565;29;20040;-71
2021/04/19 02:05:51;;;;;;;2.70;1.10;;;8.00;69.50;;;;;;4895537;29;20041;-71
2021/04/19 02:08:50;;;;;;;3.70;1.10;;;8.00;69.60;;;;;;4892307;29;20077;-70
2021/04/19 02:11:44;;;;;;;3.97;1.52;;;8.00;69.80;;;;;;4896087;29;20040;-70
2021/04/19 02:14:17;;;;;;;3.55;1.10;;;7.90;69.70;;;;;;4886301;29;20049;-71
2021/04/19 02:17:06;;;;;;;5.20;1.73;;;7.90;69.90;;;;;;4875616;29;20047;-70
2021/04/19 02:19:39;;;;;;;3.30;1.20;;;7.90;70.10;;;;;;4878532;29;20051;-71
2021/04/19 02:22:20;;;;;;;5.22;1.95;;;7.80;70.20;;;;;;4860440;29;20536;-70
2021/04/19 02:24:51;;;;;;;4.65;1.88;;;7.80;70.10;;;;;;4864686;29;20082;-73
2021/04/19 02:27:23;;;;;;;4.43;2.00;;;7.80;70.40;;;;;;4873258;29;20075;-73
2021/04/19 02:29:59;;;;;;;3.10;1.63;;;7.70;70.50;;;;;;4888029;29;20040;-74
2021/04/19 02:32:35;;;;;;;4.67;1.30;;;7.70;71.20;;;;;;4869553;29;20450;-73
2021/04/19 02:35:10;;;;;;;4.32;1.63;;;7.60;71.30;;;;;;4875910;29;20144;-73
2021/04/19 02:37:46;;;;;;;3.63;1.73;;;7.50;70.80;;;;;;4883934;29;20145;-73
2021/04/19 02:40:15;;;;;;;3.10;1.23;;;7.50;71.00;;;;;;4865465;29;20046;-73
2021/04/19 02:42:48;;;;;;;4.00;1.23;;;7.40;71.10;;;;;;4886939;29;20623;-73
2021/04/19 02:45:19;;;;;;;6.33;1.70;;;7.40;71.20;;;;;;4885377;29;20037;-73
2021/04/19 02:47:55;;;;;;;3.57;1.60;;;7.30;71.20;;;;;;4873229;29;20057;-73
2021/04/19 02:50:37;;;;;;;4.27;1.60;;;7.30;71.40;;;;;;4877077;29;20404;-73
2021/04/19 02:53:03;;;;;;;4.87;1.70;;;7.30;71.50;;;;;;4872977;29;20052;-73
2021/04/19 02:55:31;;;;;;;3.47;1.53;;;7.20;71.50;;;;;;4898599;29;20063;-73
2021/04/19 02:58:02;;;;;;;3.43;1.57;;;7.20;72.20;;;;;;4840013;29;20040;-73
2021/04/19 03:00:36;;;;;;;3.25;1.30;;;7.20;71.80;;;;;;4871383;29;20131;-73
2021/04/19 03:03:10;;;;;;;2.92;1.30;;;7.20;71.80;;;;;;4896687;29;20051;-73
2021/04/19 03:05:42;;;;;;;3.50;1.77;;;7.10;71.90;;;;;;4873601;29;20505;-73
2021/04/19 03:08:17;;;;;;;3.88;1.30;;;7.10;72.00;;;;;;4867594;29;20063;-73
2021/04/19 03:10:52;;;;;;;3.10;1.20;;;7.10;72.00;;;;;;4891121;29;20044;-73
2021/04/19 03:13:22;;;;;;;3.17;1.37;;;7.10;72.10;;;;;;4878884;29;20045;-73
2021/04/19 03:15:53;;;;;;;3.30;1.40;;;7.10;72.20;;;;;;4867258;29;20072;-73
2021/04/19 03:18:21;;;;;;;2.57;1.30;;;7.10;72.20;;;;;;4881346;29;20047;-73
2021/04/19 03:21:09;;;;;;;2.40;1.00;;;7.10;72.20;;;;;;4872769;29;20037;-70
2021/04/19 03:23:51;;;;;;;2.90;1.30;;;7.10;72.30;;;;;;4877056;29;20067;-70
2021/04/19 03:26:29;;;;;;;4.67;1.40;;;7.10;72.30;;;;;;4899456;29;20048;-71
2021/04/19 03:28:58;;;;;;;2.47;1.20;;;7.00;73.00;;;;;;4870788;29;20508;-71
2021/04/19 03:31:40;;;;;;;4.27;1.40;;;7.00;72.50;;;;;;4854043;29;20049;-70
2021/04/19 03:34:32;;;;;;;2.73;1.13;;;7.00;72.70;;;;;;4872184;29;20048;-70
2021/04/19 03:37:12;;;;;;;4.27;1.97;;;6.90;72.70;;;;;;4876161;29;20061;-70
2021/04/19 03:39:50;;;;;;;2.83;1.33;;;6.90;72.80;;;;;;4864188;29;20044;-71
2021/04/19 03:42:18;;;;;;;3.17;1.33;;;6.80;72.80;;;;;;4870265;29;20052;-70
2021/04/19 03:44:47;;;;;;;4.07;1.60;;;6.90;72.90;;;;;;4873158;29;20413;-70
2021/04/19 03:47:27;;;;;;;4.13;1.90;;;6.90;73.00;;;;;;4872227;29;20518;-70
2021/04/19 03:50:11;;;;;;;5.90;1.73;;;6.90;73.20;;;;;;4856263;29;20589;-70
2021/04/19 03:52:49;;;;;;;5.07;2.10;;;6.90;73.20;;;;;;4874513;29;20525;-70
2021/04/19 03:55:18;;;;;;;5.40;2.47;;;6.90;73.30;;;;;;4858228;29;20053;-70
2021/04/19 03:57:49;;;;;;;3.73;1.80;;;6.90;74.00;;;;;;4868524;29;20049;-71
2021/04/19 04:00:26;;;;;;;4.60;2.10;;;7.00;73.50;;;;;;4872917;29;20100;-70
2021/04/19 04:03:12;;;;;;;4.70;2.33;;;7.00;73.60;;;;;;4876691;29;20048;-70
2021/04/19 04:06:04;;;;;;;;;;;7.00;73.50;;;;;;4874444;29;20057;-71
2021/04/19 04:08:34;;;;;;;5.80;2.80;;;7.00;73.30;;;;;;4894780;29;19924;-70
2021/04/19 04:11:02;;;;;;;5.50;2.90;;;7.10;73.50;;;;;;4893281;29;20382;-70
2021/04/19 04:13:29;;;;;;;4.40;2.10;;;7.10;73.50;;;;;;4860122;29;20055;-71
2021/04/19 04:15:59;;;;;;;5.63;2.83;;;7.20;73.50;;;;;;4895078;29;20040;-71
2021/04/19 04:18:35;;;;;;;6.80;2.90;;;7.20;73.60;;;;;;4857482;29;20048;-71
2021/04/19 04:21:07;;;;;;;7.03;3.20;;;7.20;73.60;;;;;;4862553;29;20498;-71
2021/04/19 04:23:36;;;;;;;5.47;3.20;;;7.30;73.70;;;;;;4875771;29;20562;-70
2021/04/19 04:26:04;;;;;;;5.00;3.07;;;7.30;73.80;;;;;;4842486;29;20108;-71
2021/04/19 04:28:35;;;;;;;9.60;4.05;;;7.40;73.80;;;;;;4881410;29;20052;-72
2021/04/19 04:31:07;;;;;;;6.97;3.97;;;7.40;74.00;;;;;;4854672;29;20422;-70
2021/04/19 04:33:38;;;;;;;7.22;3.65;;;7.40;74.00;;;;;;4864666;29;20073;-71
2021/04/19 04:36:20;;;;;;;5.85;2.58;;;7.40;74.00;;;;;;4870710;29;20053;-70
2021/04/19 04:38:54;;;;;;;5.53;3.07;;;7.50;73.90;;;;;;4868118;29;20135;-71
2021/04/19 04:41:30;;;;;;;5.45;2.40;;;7.60;73.90;;;;;;4866624;29;20049;-70
2021/04/19 04:43:58;;;;;;;5.70;2.97;;;7.60;73.80;;;;;;4863399;29;20085;-70
2021/04/19 04:46:46;;;;;;;4.27;2.00;;;7.70;73.90;;;;;;4897430;29;20047;-70
2021/04/19 04:49:16;;;;;;;4.90;2.50;;;7.70;73.80;;;;;;4879669;29;20521;-70
2021/04/19 04:51:47;;;;;;;4.10;2.43;;;7.70;73.80;;;;;;4888724;29;20036;-70
2021/04/19 04:54:20;;;;;;;6.03;2.30;;;7.70;73.90;;;;;;4887337;29;20041;-70
2021/04/19 04:56:57;;;;;;;4.97;2.47;;;7.80;74.00;;;;;;4894031;29;20393;-70
2021/04/19 04:59:26;;;;;;;5.57;2.73;;;7.80;74.00;;;;;;4863256;29;20053;-70
2021/04/19 05:01:53;;;;;;;4.07;2.03;;;7.80;74.00;;;;;;4889018;29;20104;-71
2021/04/19 05:04:21;;;;;;;4.47;1.87;;;7.80;74.00;;;;;;4891596;29;20051;-71
2021/04/19 05:06:48;;;;;;;5.83;2.43;;;7.90;74.10;;;;;;4878765;29;20037;-70
2021/04/19 05:09:14;;;;;;;5.13;2.40;;;7.90;74.20;;;;;;4893933;29;20075;-70
2021/04/19 05:11:44;;;;;;;6.20;3.40;;;7.90;74.30;;;;;;4893951;29;20458;-73
2021/04/19 05:14:11;;;;;;;7.37;3.20;;;7.90;74.40;;;;;;4894031;29;20051;-74
2021/04/19 05:16:38;;;;;;;5.47;2.70;;;7.90;74.60;;;;;;4892755;29;20485;-73
2021/04/19 05:19:07;;;;;;;5.57;2.67;;;7.80;74.70;;;;;;4871667;29;20044;-73
2021/04/19 05:21:35;;;;;;;4.97;2.57;;;7.70;74.90;;;;;;4874262;29;20501;-74
2021/04/19 05:24:02;;;;;;;4.70;2.43;;;7.70;75.20;;;;;;4883823;29;20553;-73
2021/04/19 05:26:30;;;;;;;6.20;2.67;;;7.70;75.30;;;;;;4880987;29;20059;-74
2021/04/19 05:28:57;;;;;;;4.80;2.93;;;7.70;75.40;;;;;;4879072;29;20048;-74
2021/04/19 05:31:24;;;;;;;5.13;2.50;;;7.70;75.60;;;;;;4881690;29;20040;-74
2021/04/19 05:33:55;;;;;;;5.33;2.77;;;7.70;75.70;;;;;;4847796;29;20041;-74
2021/04/19 05:36:24;;;;;;;3.10;1.60;;;7.60;75.90;;;;;;4896911;29;20468;-75
2021/04/19 05:38:52;;;;;;;4.17;2.23;;;7.60;76.10;;;;;;4889428;29;20051;-74
2021/04/19 05:41:20;;;;;;;4.93;2.03;;;7.50;76.20;;;;;;4891107;29;20101;-74
2021/04/19 05:43:48;;;;;;;6.17;3.57;;;7.50;76.40;;;;;;4877466;29;20434;-74
2021/04/19 05:46:16;;;;;;;7.70;4.00;;;7.40;76.50;;;;;;4888738;29;20036;-74
2021/04/19 05:48:44;;;;;;;7.23;3.13;;;7.30;76.90;;;;;;4897220;29;20100;-74
2021/04/19 05:51:22;;;;;;;6.43;3.70;;;7.20;77.20;;;;;;4886452;29;20123;-75
2021/04/19 05:53:51;;;;;;;6.33;3.90;;;7.10;77.70;;;;;;4891103;29;20041;-75
2021/04/19 05:56:56;;;;;;;7.03;3.43;;;7.00;78.00;;;;;;4878762;29;20147;-73
2021/04/19 05:59:37;;;;;;;6.30;3.50;;;7.00;78.20;;;;;;4863178;29;20132;-74
2021/04/19 06:02:07;;;;;;;6.50;3.30;;;7.10;78.10;;;;;;4871221;29;20064;-74
2021/04/19 06:05:01;;;;;;;5.70;2.47;;;7.10;78.20;;;;;;4869233;29;20131;-74
2021/04/19 06:07:43;;;;;;;6.60;3.10;;;7.20;78.30;;;;;;4875287;29;20044;-74
2021/04/19 06:10:56;;;;;;;6.13;3.03;;;7.20;78.30;;;;;;4864974;29;20049;-74
2021/04/19 06:13:45;;;;;;;5.10;2.37;;;7.30;78.30;;;;;;4871473;29;20044;-74
2021/04/19 06:16:13;;;;;;;5.80;3.23;;;7.30;78.40;;;;;;4888269;29;20068;-74
2021/04/19 06:18:43;;;;;;;5.67;3.30;;;7.30;78.50;;;;;;4895791;29;20552;-74
2021/04/19 06:21:12;;;;;;;5.10;3.17;;;7.30;78.60;;;;;;4881459;29;20041;-75
2021/04/19 06:23:41;;;;;;;6.40;4.03;;;7.40;78.70;;;;;;4889417;29;20139;-74
2021/04/19 06:26:08;;;;;;;5.30;3.07;;;7.50;78.70;;;;;;4892131;29;20485;-76
2021/04/19 06:28:39;;;;;;;4.80;2.83;;;7.50;78.70;;;;;;4876350;29;20139;-74
2021/04/19 06:31:24;;;;;;;5.40;3.20;;;7.60;78.70;;;;;;4896640;29;20051;-74
2021/04/19 06:34:21;;;;;;;6.80;3.37;;;7.60;78.70;;;;;;4895930;29;20047;-75
2021/04/19 06:36:50;;;;;;;7.33;4.00;;;7.60;78.80;;;;;;4867043;29;20049;-74
2021/04/19 06:39:18;;;;;;;7.30;4.27;;;7.60;79.00;;;;;;4881991;29;20043;-74
2021/04/19 06:41:45;;;;;;;7.60;4.77;;;7.50;79.10;;;;;;4866761;29;20052;-74
2021/04/19 06:44:14;;;;;;;6.70;4.03;;;7.50;79.30;;;;;;4885216;29;20114;-74
2021/04/19 06:46:45;;;;;;;7.37;3.70;;;7.50;79.50;;;;;;4879248;29;20053;-73
2021/04/19 06:49:13;;;;;;;7.50;4.33;;;7.50;79.60;;;;;;4892916;29;20064;-73
2021/04/19 06:51:41;;;;;;;6.90;3.97;;;7.50;79.80;;;;;;4865627;29;20048;-73
2021/04/19 06:54:09;;;;;;;6.23;4.37;;;7.50;79.80;;;;;;4860068;29;20367;-74
2021/04/19 06:56:39;;;;;;;8.47;5.13;;;7.50;79.90;;;;;;4877459;29;20091;-74
2021/04/19 06:59:10;;;;;;;11.07;5.97;;;7.50;80.10;;;;;;4883323;29;20053;-74
2021/04/19 07:01:38;;;;;;;9.13;5.10;;;7.50;80.40;;;;;;4867122;29;20103;-74
2021/04/19 07:04:09;;;;;;;7.10;4.33;;;7.60;80.40;;;;;;4880337;29;20051;-75
2021/04/19 07:06:37;;;;;;;8.50;4.90;;;7.60;80.40;;;;;;4885521;29;20044;-74
2021/04/19 07:09:12;;;;;;;9.93;5.43;;;7.70;80.30;;;;;;4894316;29;20041;-74
2021/04/19 07:11:40;;;;;;;6.77;4.53;;;7.80;80.30;;;;;;4873950;29;20044;-74
2021/04/19 07:14:08;;;;;;;7.97;4.63;;;7.90;80.20;;;;;;4879738;29;20048;-73
2021/04/19 07:16:35;;;;;;;7.20;3.80;;;8.00;80.10;;;;;;4873613;29;20052;-73
2021/04/19 07:19:05;;;;;;;9.87;5.87;;;8.20;79.90;;;;;;4887699;29;20049;-72
2021/04/19 07:21:33;;;;;;;7.90;4.23;;;8.40;79.80;;;;;;4890882;29;20041;-72
2021/04/19 07:24:02;;;;;;;7.80;4.53;;;8.50;79.70;;;;;;4867867;29;20517;-72
2021/04/19 07:26:30;;;;;;;6.60;4.20;;;8.70;79.50;;;;;;4882141;29;20116;-73
2021/04/19 07:28:57;;;;;;;7.80;4.17;;;8.80;79.30;;;;;;4862956;29;20053;-73
2021/04/19 07:31:24;;;;;;;8.68;4.45;;;8.90;79.20;;;;;;4868901;29;20048;-72
2021/04/19 07:33:54;;;;;;;6.00;3.97;;;9.00;79.20;;;;;;4876124;29;20084;-74
2021/04/19 07:36:28;;;;;;;6.25;3.30;;;9.10;79.30;;;;;;4868798;29;20084;-74
2021/04/19 07:38:58;;;;;;;9.25;4.97;;;9.20;79.30;;;;;;4894090;29;20116;-74
2021/04/19 07:41:48;;;;;;;6.15;3.42;;;9.40;79.20;;;;;;4896186;29;20096;-73
2021/04/19 07:44:34;;;;;;;7.70;4.45;;;9.70;79.00;;;;;;4897388;29;20100;-74
2021/04/19 07:47:18;;;;;;;9.18;4.90;;;9.90;78.60;;;;;;4870633;29;20562;-74
2021/04/19 07:49:55;;;;;;;8.40;4.13;;;10.10;78.60;;;;;;4876666;29;20040;-73
2021/04/19 07:52:22;;;;;;;6.95;4.25;;;10.10;78.40;;;;;;4886835;29;20489;-73
2021/04/19 07:55:11;;;;;;;6.78;4.25;;;10.20;78.50;;;;;;4888412;29;20032;-74
2021/04/19 07:57:58;;;;;;;6.13;3.80;;;10.30;78.60;;;;;;4891059;29;20135;-73
2021/04/19 08:00:39;;;;;;;6.93;3.95;;;10.40;78.50;;;;;;4875730;29;20036;-73
2021/04/19 08:03:11;;;;;;;7.13;3.97;;;10.50;78.60;;;;;;4876914;29;20044;-74
2021/04/19 08:05:42;;;;;;;7.13;3.70;;;10.50;79.20;;;;;;4882262;29;20507;-74
2021/04/19 08:08:09;;;;;;;9.23;5.30;;;10.50;79.20;;;;;;4896361;29;21466;-73
2021/04/19 08:10:39;;;;;;;8.75;6.03;;;10.50;78.80;;;;;;4871808;29;20519;-72
2021/04/19 08:13:11;;;;;;;8.35;5.38;;;10.50;79.40;;;;;;4877501;29;20049;-72
2021/04/19 08:15:41;;;;;;;8.20;5.00;;;10.50;79.30;;;;;;4890629;29;20036;-76
2021/04/19 08:18:09;;;;;;;6.55;4.30;;;10.50;79.40;;;;;;4876450;29;20554;-73
2021/04/19 08:20:38;;;;;;;7.22;4.93;;;10.60;79.60;;;;;;4893670;29;20044;-74
2021/04/19 08:23:10;;;;;;;7.40;4.22;;;10.70;79.40;;;;;;4870861;29;20069;-74
2021/04/19 08:25:38;;;;;;;;;;;10.90;79.10;;;;;;4869149;29;20222;-75
2021/04/19 08:28:07;;;;;;;6.95;4.68;;;10.90;78.90;;;;;;4881980;29;19978;-74
2021/04/19 08:30:34;;;;;;;6.95;4.45;;;11.00;78.80;;;;;;4877428;29;20529;-74
2021/04/19 08:33:01;;;;;;;8.15;4.63;;;10.90;79.00;;;;;;4863003;29;20104;-74
2021/04/19 08:35:29;;;;;;;8.50;4.90;;;10.80;79.00;;;;;;4879626;29;20052;-74
2021/04/19 08:37:59;;;;;;;8.77;5.82;;;10.80;79.20;;;;;;4879902;29;20045;-74
2021/04/19 08:40:28;;;;;;;7.05;4.28;;;10.80;79.40;;;;;;4894836;29;20454;-74
2021/04/19 08:42:56;;;;;;;8.48;4.60;;;10.70;79.40;;;;;;4877734;29;20056;-74
2021/04/19 08:45:26;;;;;;;8.52;5.47;;;10.80;79.50;;;;;;4875927;29;20469;-74
2021/04/19 08:47:54;;;;;;;6.28;4.40;;;10.80;80.00;;;;;;4880737;29;20458;-74
2021/04/19 08:50:27;;;;;;;5.85;3.83;;;10.90;79.40;;;;;;4897276;29;20037;-74
2021/04/19 08:52:56;;;;;;;5.90;3.72;;;10.90;79.20;;;;;;4893869;29;20045;-74
2021/04/19 08:55:24;;;;;;;6.15;3.20;;;10.90;79.20;;;;;;4876350;29;20036;-75
2021/04/19 08:57:51;;;;;;;5.88;3.45;;;11.00;79.30;;;;;;4896632;29;20037;-74
2021/04/19 09:00:22;;;;;;;5.45;3.42;;;11.00;79.30;;;;;;4863883;29;20047;-74
2021/04/19 09:02:49;;;;;;;5.93;3.80;;;11.10;79.20;;;;;;4879279;29;20067;-74
2021/04/19 09:05:18;;;;;;;6.60;3.70;;;11.20;79.10;;;;;;4879533;29;20048;-74
2021/04/19 09:07:46;;;;;;;5.85;3.25;;;11.20;79.10;;;;;;4896391;29;20045;-74
2021/04/19 09:10:19;;;;;;;5.20;3.00;;;11.30;79.00;;;;;;4881506;29;20051;-74
2021/04/19 09:12:47;;;;;;;4.97;2.72;;;11.40;78.90;;;;;;4880321;29;20041;-74
2021/04/19 09:15:36;;;;;;;5.72;3.42;;;11.50;78.80;;;;;;4877765;29;20048;-74
2021/04/19 09:18:09;;;;;;;6.18;4.00;;;11.70;78.70;;;;;;4894707;29;20068;-72
2021/04/19 09:20:47;;;;;;;5.82;2.92;;;11.90;78.40;;;;;;4878353;29;20127;-73
2021/04/19 09:23:28;;;;;;;6.05;3.90;;;12.10;78.10;;;;;;4878308;29;20042;-73
2021/04/19 09:25:56;;;;;;;5.95;3.58;;;12.30;77.80;;;;;;4881762;29;20549;-73
2021/04/19 09:28:41;;;;;;;4.75;2.88;;;12.40;77.60;;;;;;4867204;29;20049;-73
2021/04/19 09:31:10;;;;;;;5.40;3.20;;;12.50;77.40;;;;;;4878452;29;20063;-73
2021/04/19 09:33:38;;;;;;;5.00;3.28;;;12.50;77.40;;;;;;4872804;29;20045;-73
2021/04/19 09:36:06;;;;;;;5.75;3.35;;;12.60;77.30;;;;;;4880422;29;20082;-73
2021/04/19 09:38:47;;;;;;;5.32;3.15;;;12.70;77.00;;;;;;4877642;29;20044;-73
2021/04/19 09:41:17;;;;;;;5.30;3.15;;;12.80;76.90;;;;;;4869696;29;20041;-72
2021/04/19 09:43:49;;;;;;;5.03;2.75;;;13.00;76.80;;;;;;4896531;29;20403;-72
2021/04/19 09:46:16;;;;;;;5.13;3.03;;;13.20;76.50;;;;;;4878870;29;20124;-73
2021/04/19 09:48:44;;;;;;;4.70;2.92;;;13.30;76.10;;;;;;4897192;29;20049;-73
2021/04/19 09:51:23;;;;;;;4.85;2.92;;;13.40;76.00;;;;;;4894703;29;20610;-72
2021/04/19 09:53:57;;;;;;;5.60;3.20;;;13.50;75.90;;;;;;4880325;29;20045;-72
2021/04/19 09:56:30;;;;;;;5.90;3.88;;;13.60;75.70;;;;;;4889964;29;20036;-73
2021/04/19 09:58:57;;;;;;;;;;;13.50;75.20;;;;;;4888342;29;20045;-73
2021/04/19 10:01:25;;;;;;;5.90;4.03;;;13.50;75.60;;;;;;4896075;29;19924;-73
2021/04/19 10:03:54;;;;;;;6.45;3.72;;;13.60;75.40;;;;;;4896724;29;20564;-72
2021/04/19 10:06:29;;;;;;;5.53;3.58;;;13.70;75.20;;;;;;4876799;29;20449;-72
2021/04/19 10:09:01;;;;;;;5.55;3.20;;;13.80;75.10;;;;;;4896747;29;20045;-72
2021/04/19 10:11:32;;;;;;;4.57;2.83;;;13.80;74.80;;;;;;4885957;29;20045;-72
2021/04/19 10:14:07;;;;;;;5.57;3.53;;;13.80;74.80;;;;;;4898595;29;20048;-72
2021/04/19 10:16:51;;;;;;;4.53;3.03;;;13.80;74.70;;;;;;4896088;29;20048;-75
2021/04/19 10:19:29;;;;;;;5.72;3.80;;;13.70;74.80;;;;;;4876433;29;20040;-74
2021/04/19 10:22:08;;;;;;;5.57;3.45;;;13.80;74.60;;;;;;4870964;29;20409;-74
2021/04/19 10:24:48;;;;;;;4.63;2.95;;;14.00;74.40;;;;;;4883900;29;20121;-74
2021/04/19 10:27:26;;;;;;;6.93;3.95;;;14.10;74.20;;;;;;4897063;29;20044;-74
2021/04/19 10:29:53;;;;;;;4.95;3.00;;;14.20;73.90;;;;;;4889561;29;21040;-75
2021/04/19 10:32:30;;;;;;;5.25;3.03;;;14.20;73.70;;;;;;4889698;29;20041;-74
2021/04/19 10:34:57;;;;;;;4.53;3.67;;;14.20;73.70;;;;;;4896682;29;20033;-73
2021/04/19 10:37:24;;;;;;;4.97;3.33;;;14.30;73.60;;;;;;4864662;29;20488;-74
2021/04/19 10:39:51;;;;;;;5.35;3.95;;;14.60;73.10;;;;;;4864527;29;20132;-72
2021/04/19 10:42:31;;;;;;;5.38;3.60;;;14.70;72.40;;;;;;4871689;29;20048;-72
2021/04/19 10:45:08;;;;;;;5.30;3.22;;;14.90;71.90;;;;;;4861841;29;20049;-72
2021/04/19 10:47:35;;;;;;;4.40;3.20;;;15.10;71.40;;;;;;4875098;29;20057;-71
2021/04/19 10:50:02;;;;;;;5.57;3.47;;;15.40;71.00;;;;;;4897388;29;20056;-71
2021/04/19 10:52:30;;;;;;;5.22;3.78;;;15.70;70.00;;;;;;4848455;29;20558;-71
2021/04/19 10:54:56;;;;;;;5.07;3.38;;;16.10;69.30;;;;;;4867200;29;20047;-71
2021/04/19 10:57:25;;;;;;;6.32;3.30;;;16.20;68.50;;;;;;4879842;29;20040;-72
2021/04/19 10:59:53;;;;;;;5.43;3.17;;;15.90;69.50;;;;;;4879410;29;20059;-71
2021/04/19 11:02:25;;;;;;;3.60;2.45;;;15.80;69.50;;;;;;4875171;29;20052;-71
2021/04/19 11:04:53;;;;;;;3.33;2.15;;;15.80;69.40;;;;;;4877440;29;20048;-72
2021/04/19 11:07:35;;;;;;;4.13;2.63;;;15.60;69.70;;;;;;4848827;29;20131;-71
2021/04/19 11:10:25;;;;;;;3.70;2.30;;;15.50;70.00;;;;;;4884231;29;20138;-71
2021/04/19 11:13:03;;;;;;;4.03;2.30;;;15.50;70.10;;;;;;4888233;29;20032;-71
2021/04/19 11:15:58;;;;;;;3.25;2.05;;;15.70;70.00;;;;;;4870401;29;20196;-70
2021/04/19 11:18:27;;;;;;;4.30;2.80;;;15.80;69.30;;;;;;4886234;29;20136;-70
2021/04/19 11:20:57;;;;;;;4.07;2.30;;;15.80;69.30;;;;;;4870332;29;20049;-73
2021/04/19 11:23:33;;;;;;;3.55;2.30;;;15.70;69.30;;;;;;4893036;29;20497;-74
2021/04/19 11:26:02;;;;;;;3.80;2.22;;;15.80;69.20;;;;;;4890949;29;20033;-72
2021/04/19 11:28:33;;;;;;;3.17;1.83;;;16.50;68.00;;;;;;4893973;29;20044;-75
2021/04/19 11:31:21;;;;;;;4.70;2.67;;;17.40;66.30;;;;;;4892712;29;20527;-74
2021/04/19 11:34:12;;;;;;;3.97;2.58;;;18.10;64.10;;;;;;4853252;29;20076;-75
2021/04/19 11:37:00;;;;;;;3.35;2.30;;;18.10;63.00;;;;;;4884517;29;20121;-75
2021/04/19 11:39:35;;;;;;;3.75;2.40;;;17.30;64.50;;;;;;4866806;29;20061;-75
2021/04/19 11:42:02;;;;;;;4.25;2.55;;;16.80;65.70;;;;;;4875919;29;20045;-75
2021/04/19 11:44:47;;;;;;;4.00;2.20;;;16.20;66.60;;;;;;4876671;29;20063;-74
2021/04/19 11:47:18;;;;;;;3.97;2.38;;;15.90;67.60;;;;;;4881439;29;20044;-74
2021/04/19 11:49:49;;;;;;;3.42;2.30;;;15.50;68.10;;;;;;4885738;29;20098;-78
2021/04/19 11:52:17;;;;;;;3.70;2.45;;;15.30;68.50;;;;;;4874056;29;20486;-76
2021/04/19 11:54:43;;;;;;;4.32;2.47;;;15.10;68.80;;;;;;4896738;29;20041;-75
2021/04/19 11:57:10;;;;;;;2.40;1.60;;;15.00;69.10;;;;;;4860698;29;20045;-76
2021/04/19 11:59:38;;;;;;;3.17;1.90;;;14.90;69.10;;;;;;4899162;29;20040;-76
2021/04/19 12:02:10;;;;;;;2.33;1.38;;;14.90;69.20;;;;;;4885984;29;20056;-74
2021/04/19 12:04:37;;;;;;;3.28;1.75;;;14.90;69.10;;;;;;4877648;29;20045;-75
2021/04/19 12:07:04;;;;;;;3.17;2.20;;;14.90;69.00;;;;;;4896346;29;20453;-74
2021/04/19 12:09:30;;;;;;;3.53;2.30;;;14.90;68.80;;;;;;4881813;29;20053;-75
2021/04/19 12:11:59;;;;;;;3.45;2.20;;;14.90;68.60;;;;;;4870741;29;20049;-75
2021/04/19 12:14:29;;;;;;;3.67;1.70;;;14.90;68.50;;;;;;4888366;29;20056;-76
2021/04/19 12:16:57;;;;;;;3.30;1.83;;;14.90;68.60;;;;;;4867134;29;20078;-74
2021/04/19 12:19:24;;;;;;;4.13;2.15;;;14.90;68.50;;;;;;4865287;29;20057;-73
2021/04/19 12:21:51;;;;;;;3.40;1.52;;;14.90;68.30;;;;;;4866562;29;20136;-74
2021/04/19 12:24:17;;;;;;;3.95;2.85;;;14.90;68.30;;;;;;4876648;29;20060;-74
2021/04/19 12:26:43;;;;;;;3.80;2.35;;;14.90;68.80;;;;;;4881449;29;20045;-75
2021/04/19 12:29:12;;;;;;;3.95;2.55;;;14.90;68.20;;;;;;4898608;29;20515;-74
2021/04/19 12:31:39;;;;;;;4.30;2.08;;;14.80;68.10;;;;;;4881454;29;20108;-73
2021/04/19 12:34:06;;;;;;;3.78;2.50;;;14.80;68.10;;;;;;4898598;29;20041;-73
2021/04/19 12:36:33;;;;;;;3.65;2.20;;;14.80;68.00;;;;;;4890991;29;20060;-75
2021/04/19 12:39:02;;;;;;;3.15;1.80;;;14.80;68.00;;;;;;4894729;29;20041;-75
2021/04/19 12:41:28;;;;;;;4.28;2.03;;;14.80;68.00;;;;;;4895398;29;20033;-76
2021/04/19 12:43:55;;;;;;;3.78;2.60;;;14.80;67.80;;;;;;4893088;29;20041;-75
2021/04/19 12:46:21;;;;;;;3.47;1.90;;;14.90;67.60;;;;;;4882572;29;20382;-75
2021/04/19 12:48:48;;;;;;;3.58;2.22;;;15.10;67.40;;;;;;4882767;29;20566;-75
2021/04/19 12:51:15;;;;;;;4.90;3.08;;;15.40;67.00;;;;;;4866641;29;20040;-75
2021/04/19 12:53:42;;;;;;;3.60;2.50;;;15.50;66.60;;;;;;4866820;29;20057;-75
2021/04/19 12:56:09;;;;;;;4.45;2.80;;;15.60;66.40;;;;;;4898541;29;20055;-75
2021/04/19 12:58:40;;;;;;;4.65;3.20;;;15.60;66.30;;;;;;4898370;29;20037;-75
2021/04/19 13:01:09;;;;;;;5.05;2.75;;;15.70;66.30;;;;;;4881530;29;20127;-75
2021/04/19 13:03:36;;;;;;;5.43;3.35;;;15.70;66.30;;;;;;4881737;29;20127;-75
2021/04/19 13:06:03;;;;;;;5.13;3.28;;;15.70;66.10;;;;;;4898137;29;20051;-75
2021/04/19 13:08:30;;;;;;;4.57;3.35;;;15.70;66.00;;;;;;4888865;29;20047;-75
2021/04/19 13:10:58;;;;;;;4.28;3.05;;;15.70;66.00;;;;;;4887157;29;20048;-75
2021/04/19 13:13:24;;;;;;;4.53;3.00;;;15.70;65.90;;;;;;4881169;29;20053;-75
2021/04/19 13:15:50;;;;;;;4.80;3.10;;;15.80;65.90;;;;;;4897921;29;20559;-75
2021/04/19 13:18:17;;;;;;;3.78;2.47;;;15.80;65.70;;;;;;4881146;29;20044;-75